createdAt,value
2024-04-14T00:00:15.556Z,39.82
2024-04-14T00:02:42.539Z,40.34
2024-04-14T00:05:09.248Z,40.31
2024-04-14T00:07:38.748Z,40.71
2024-04-14T00:10:06.661Z,41.07
2024-04-14T00:12:33.745Z,41.19
2024-04-14T00:15:00.711Z,41.72
2024-04-14T00:17:27.577Z,41.58
2024-04-14T00:19:55.213Z,42.08
2024-04-14T00:22:23.099Z,42.55
2024-04-14T00:24:49.896Z,42.03
2024-04-14T00:27:17.373Z,41.86
2024-04-14T00:29:44.962Z,42.08
2024-04-14T00:32:12.629Z,42.64
2024-04-14T00:34:39.685Z,43.02
2024-04-14T00:37:09.735Z,42.51
2024-04-14T00:39:37.269Z,42.27
2024-04-14T00:42:04.377Z,41.88
2024-04-14T00:44:31.061Z,41.36
2024-04-14T00:46:58.501Z,41.45
2024-04-14T00:49:26.025Z,42.50
2024-04-14T00:51:55.521Z,42.69
2024-04-14T00:54:23.496Z,42.65
2024-04-14T00:56:54.480Z,42.58
2024-04-14T00:59:21.159Z,42.62
2024-04-14T01:01:49.336Z,42.44
2024-04-14T01:04:19.147Z,42.27
2024-04-14T01:06:46.777Z,41.38
2024-04-14T01:09:16.498Z,41.15
2024-04-14T01:11:43.334Z,41.29
2024-04-14T01:14:09.997Z,40.87
2024-04-14T01:16:36.683Z,40.71
2024-04-14T01:19:03.980Z,40.57
2024-04-14T01:21:31.579Z,40.32
2024-04-14T01:23:58.580Z,40.59
2024-04-14T01:26:28.502Z,40.88
2024-04-14T01:28:55.257Z,40.87
2024-04-14T01:31:21.960Z,41.31
2024-04-14T01:33:49.944Z,41.87
2024-04-14T01:36:18.873Z,42.65
2024-04-14T01:38:47.092Z,42.87
2024-04-14T01:41:14.775Z,43.76
2024-04-14T01:43:43.924Z,44.34
2024-04-14T01:46:13.619Z,44.07
2024-04-14T01:48:41.107Z,44.32
2024-04-14T01:51:08.167Z,44.34
2024-04-14T01:53:37.592Z,43.65
2024-04-14T01:56:07.090Z,43.29
2024-04-14T01:58:34.063Z,43.23
2024-04-14T02:01:03.324Z,43.15
2024-04-14T02:03:30.503Z,42.80
2024-04-14T02:05:58.532Z,42.47
2024-04-14T02:08:25.251Z,42.50
2024-04-14T02:10:54.136Z,42.76
2024-04-14T02:13:22.678Z,42.13
2024-04-14T02:15:49.763Z,41.57
2024-04-14T02:18:16.821Z,41.77
2024-04-14T02:20:43.983Z,42.37
2024-04-14T02:23:14.930Z,43.11
2024-04-14T02:25:41.909Z,42.29
2024-04-14T02:28:08.599Z,42.23
2024-04-14T02:30:35.925Z,42.55
2024-04-14T02:33:03.465Z,42.19
2024-04-14T02:35:30.475Z,42.40
2024-04-14T02:37:57.424Z,43.59
2024-04-14T02:40:24.459Z,43.29
2024-04-14T02:42:51.481Z,42.28
2024-04-14T02:45:19.000Z,43.19
2024-04-14T02:47:46.288Z,44.15
2024-04-14T02:50:18.203Z,44.19
2024-04-14T02:52:44.939Z,44.76
2024-04-14T02:55:11.610Z,45.07
2024-04-14T02:57:38.402Z,44.32
2024-04-14T03:00:06.174Z,43.60
2024-04-14T03:02:33.635Z,43.40
2024-04-14T03:05:00.874Z,42.95
2024-04-14T03:07:27.900Z,43.17
2024-04-14T03:09:55.669Z,43.40
2024-04-14T03:12:22.347Z,44.38
2024-04-14T03:14:49.101Z,45.08
2024-04-14T03:17:18.006Z,45.48
2024-04-14T03:19:44.728Z,45.22
2024-04-14T03:22:11.909Z,45.21
2024-04-14T03:24:38.942Z,45.07
2024-04-14T03:27:05.637Z,45.09
2024-04-14T03:29:32.294Z,45.23
2024-04-14T03:31:59.619Z,46.10
2024-04-14T03:34:26.681Z,45.83
2024-04-14T03:36:53.386Z,45.35
2024-04-14T03:39:20.933Z,44.88
2024-04-14T03:41:49.764Z,44.36
2024-04-14T03:44:17.622Z,44.79
2024-04-14T03:46:44.899Z,44.32
2024-04-14T03:49:11.666Z,44.70
2024-04-14T03:51:41.229Z,45.26
2024-04-14T03:54:09.868Z,44.88
2024-04-14T03:56:36.946Z,45.00
2024-04-14T03:59:04.149Z,45.06
2024-04-14T04:01:32.212Z,44.84
2024-04-14T04:03:59.261Z,44.89
2024-04-14T04:06:33.585Z,45.16
2024-04-14T04:09:00.937Z,45.34
2024-04-14T04:11:27.962Z,46.30
2024-04-14T04:14:15.156Z,46.04
2024-04-14T04:17:02.168Z,45.02
2024-04-14T04:19:49.155Z,44.56
2024-04-14T04:22:17.284Z,44.75
2024-04-14T04:24:43.991Z,44.68
2024-04-14T04:27:11.087Z,44.34
2024-04-14T04:29:37.749Z,44.54
2024-04-14T04:32:04.750Z,44.68
2024-04-14T04:34:31.562Z,45.64
2024-04-14T04:36:59.752Z,46.02
2024-04-14T04:39:30.304Z,46.69
2024-04-14T04:42:00.214Z,47.22
2024-04-14T04:44:26.899Z,46.58
2024-04-14T04:46:56.937Z,46.20
2024-04-14T04:49:25.115Z,46.11
2024-04-14T04:51:53.699Z,45.45
2024-04-14T04:54:24.067Z,46.14
2024-04-14T04:56:51.130Z,47.31
2024-04-14T04:59:17.801Z,48.18
2024-04-14T05:01:48.743Z,47.27
2024-04-14T05:04:16.430Z,46.66
2024-04-14T05:06:44.143Z,45.45
2024-04-14T05:09:11.497Z,44.97
2024-04-14T05:11:41.296Z,45.52
2024-04-14T05:14:15.669Z,46.11
2024-04-14T05:16:44.544Z,46.13
2024-04-14T05:19:18.992Z,44.55
2024-04-14T05:21:45.906Z,45.23
2024-04-14T05:24:12.818Z,45.20
2024-04-14T05:26:40.797Z,42.89
2024-04-14T05:29:07.521Z,39.96
2024-04-14T05:31:36.900Z,37.53
2024-04-14T05:34:05.162Z,36.19
2024-04-14T05:36:32.245Z,35.14
2024-04-14T05:38:59.949Z,34.14
2024-04-14T05:41:26.915Z,32.95
2024-04-14T05:43:54.469Z,31.52
2024-04-14T05:46:22.342Z,31.33
2024-04-14T05:48:49.386Z,30.96
2024-04-14T05:51:16.370Z,30.60
2024-04-14T05:53:43.318Z,29.81
2024-04-14T05:56:10.088Z,28.69
2024-04-14T05:58:37.628Z,27.53
2024-04-14T06:01:06.640Z,27.32
2024-04-14T06:03:36.349Z,26.61
2024-04-14T06:06:03.339Z,26.78
2024-04-14T06:08:30.084Z,26.65
2024-04-14T06:11:00.326Z,26.71
2024-04-14T06:13:52.851Z,27.58
2024-04-14T06:16:19.917Z,28.87
2024-04-14T06:18:46.773Z,30.09
2024-04-14T06:21:13.505Z,32.00
2024-04-14T06:23:41.083Z,32.62
2024-04-14T06:26:11.120Z,32.99
2024-04-14T06:28:37.862Z,33.81
2024-04-14T06:31:04.756Z,33.25
2024-04-14T06:33:31.777Z,32.01
2024-04-14T06:36:01.091Z,30.59
2024-04-14T06:38:28.145Z,29.35
2024-04-14T06:40:54.933Z,29.43
2024-04-14T06:43:24.195Z,28.56
2024-04-14T06:45:50.949Z,27.97
2024-04-14T06:48:17.828Z,28.10
2024-04-14T06:50:44.616Z,27.59
2024-04-14T06:53:11.575Z,28.73
2024-04-14T06:55:38.444Z,28.22
2024-04-14T06:58:05.565Z,30.14
2024-04-14T07:00:32.632Z,31.51
2024-04-14T07:02:59.953Z,30.33
2024-04-14T07:05:26.568Z,29.73
2024-04-14T07:07:56.379Z,29.31
2024-04-14T07:10:23.424Z,29.03
2024-04-14T07:12:50.504Z,28.63
2024-04-14T07:15:23.813Z,28.02
2024-04-14T07:17:53.624Z,27.74
2024-04-14T07:20:24.034Z,28.13
2024-04-14T07:22:50.802Z,27.79
2024-04-14T07:25:18.350Z,27.75
2024-04-14T07:27:48.235Z,27.80
2024-04-14T07:30:15.449Z,28.34
2024-04-14T07:32:42.590Z,27.91
2024-04-14T07:35:10.235Z,28.50
2024-04-14T07:37:39.640Z,28.48
2024-04-14T07:40:06.650Z,28.82
2024-04-14T07:42:33.332Z,29.06
2024-04-14T07:45:02.791Z,29.83
2024-04-14T07:47:30.296Z,30.63
2024-04-14T07:53:13.880Z,30.67
2024-04-14T07:55:40.590Z,31.22
2024-04-14T07:58:11.041Z,31.12
2024-04-14T08:00:41.660Z,32.57
2024-04-14T08:03:08.609Z,30.95
2024-04-14T08:05:37.647Z,31.62
2024-04-14T08:08:08.265Z,32.23
2024-04-14T08:10:34.968Z,32.08
2024-04-14T08:13:01.906Z,31.48
2024-04-14T08:15:28.641Z,31.83
2024-04-14T08:17:55.305Z,31.62
2024-04-14T08:20:22.386Z,33.74
2024-04-14T08:22:49.178Z,33.94
2024-04-14T08:25:15.871Z,33.76
2024-04-14T08:27:42.856Z,34.07
2024-04-14T08:30:11.401Z,34.52
2024-04-14T08:32:38.141Z,34.45
2024-04-14T08:35:05.144Z,34.35
2024-04-14T08:37:32.574Z,34.90
2024-04-14T08:39:59.352Z,34.83
2024-04-14T08:42:26.336Z,34.40
2024-04-14T08:44:53.343Z,34.31
2024-04-14T08:47:20.933Z,36.58
2024-04-14T08:49:47.620Z,35.75
2024-04-14T08:52:15.014Z,35.30
2024-04-14T08:54:44.263Z,34.78
2024-04-14T08:57:18.466Z,34.69
2024-04-14T08:59:52.689Z,35.28
2024-04-14T09:02:20.188Z,34.38
2024-04-14T09:04:46.872Z,35.21
2024-04-14T09:07:13.617Z,35.05
2024-04-14T09:09:40.295Z,34.44
2024-04-14T09:12:06.976Z,34.60
2024-04-14T09:14:33.926Z,34.90
2024-04-14T09:17:01.429Z,34.33
2024-04-14T09:19:29.196Z,34.96
2024-04-14T09:21:56.542Z,35.37
2024-04-14T09:24:23.264Z,35.29
2024-04-14T09:26:51.029Z,34.95
2024-04-14T09:29:20.240Z,33.94
2024-04-14T09:31:47.230Z,32.35
2024-04-14T09:34:15.142Z,31.93
2024-04-14T09:36:44.187Z,31.93
2024-04-14T09:39:10.839Z,32.37
2024-04-14T09:41:37.813Z,33.04
2024-04-14T09:44:07.252Z,32.26
2024-04-14T09:46:36.528Z,32.84
2024-04-14T09:49:03.528Z,32.64
2024-04-14T09:51:30.923Z,33.25
2024-04-14T09:53:58.018Z,33.73
2024-04-14T09:56:25.455Z,33.45
2024-04-14T09:58:52.437Z,33.19
2024-04-14T10:01:19.309Z,32.42
2024-04-14T10:03:46.176Z,32.07
2024-04-14T10:06:13.201Z,32.95
2024-04-14T10:08:39.912Z,33.33
2024-04-14T10:11:07.834Z,34.12
2024-04-14T10:13:35.354Z,33.51
2024-04-14T10:18:42.463Z,33.06
2024-04-14T10:21:11.236Z,32.92
2024-04-14T10:23:38.353Z,32.82
2024-04-14T10:26:05.009Z,31.60
2024-04-14T10:28:32.067Z,31.82
2024-04-14T10:30:58.901Z,33.54
2024-04-14T10:33:33.277Z,31.62
2024-04-14T10:36:00.496Z,32.75
2024-04-14T10:38:27.461Z,31.71
2024-04-14T10:40:54.461Z,31.51
2024-04-14T10:43:21.551Z,31.50
2024-04-14T10:45:48.547Z,31.76
2024-04-14T10:48:15.228Z,30.92
2024-04-14T10:50:44.040Z,30.96
2024-04-14T10:53:14.359Z,32.60
2024-04-14T10:55:41.291Z,32.68
2024-04-14T10:58:15.279Z,31.07
2024-04-14T11:00:42.363Z,29.46
2024-04-14T11:03:09.352Z,31.47
2024-04-14T11:05:36.140Z,32.23
2024-04-14T11:08:02.953Z,32.09
2024-04-14T11:10:29.983Z,30.63
2024-04-14T11:12:56.979Z,29.79
2024-04-14T11:15:23.999Z,30.56
2024-04-14T11:17:53.828Z,29.72
2024-04-14T11:20:20.556Z,30.49
2024-04-14T11:22:47.609Z,29.54
2024-04-14T11:25:14.233Z,30.71
2024-04-14T11:27:41.027Z,29.91
2024-04-14T11:30:07.735Z,29.68
2024-04-14T11:32:37.483Z,30.12
2024-04-14T11:35:04.307Z,29.73
2024-04-14T11:37:38.404Z,29.58
2024-04-14T11:40:06.001Z,29.10
2024-04-14T11:42:33.961Z,29.74
2024-04-14T11:45:00.942Z,29.62
2024-04-14T11:47:27.639Z,30.19
2024-04-14T11:49:54.431Z,30.25
2024-04-14T11:52:21.278Z,29.64
2024-04-14T11:54:47.968Z,29.66
2024-04-14T11:57:14.681Z,29.78
2024-04-14T11:59:41.397Z,29.35
2024-04-14T12:02:08.434Z,29.08
2024-04-14T12:04:35.180Z,28.77
2024-04-14T12:07:01.919Z,29.09
2024-04-14T12:09:28.693Z,29.28
2024-04-14T12:11:56.342Z,29.71
2024-04-14T12:14:23.040Z,29.49
2024-04-14T12:16:52.331Z,29.11
2024-04-14T12:19:19.285Z,29.28
2024-04-14T12:21:47.154Z,29.84
2024-04-14T12:24:13.915Z,29.76
2024-04-14T12:26:40.548Z,29.56
2024-04-14T12:29:07.263Z,29.40
2024-04-14T12:31:34.446Z,29.17
2024-04-14T12:34:05.058Z,29.02
2024-04-14T12:36:31.753Z,30.01
2024-04-14T12:38:58.471Z,28.94
2024-04-14T12:41:25.142Z,29.57
2024-04-14T12:43:53.688Z,29.61
2024-04-14T12:46:23.522Z,29.72
2024-04-14T12:48:50.287Z,30.59
2024-04-14T12:51:16.940Z,30.82
2024-04-14T12:53:43.622Z,31.61
2024-04-14T12:56:10.300Z,31.82
2024-04-14T12:58:37.038Z,31.37
2024-04-14T13:13:50.817Z,30.41
2024-04-14T13:34:43.669Z,30.05
2024-04-14T13:37:10.483Z,29.77
2024-04-14T13:39:37.321Z,29.54
2024-04-14T13:42:05.500Z,29.60
2024-04-14T13:44:35.065Z,29.72
2024-04-14T13:47:02.188Z,30.27
2024-04-14T13:49:32.278Z,30.49
2024-04-14T13:58:30.855Z,29.65
2024-04-14T14:00:57.746Z,30.18
2024-04-14T14:03:24.584Z,30.20
2024-04-14T14:05:51.420Z,30.81
2024-04-14T14:08:18.409Z,30.83
2024-04-14T14:10:45.434Z,30.63
2024-04-14T14:13:12.638Z,30.19
2024-04-14T14:15:39.815Z,30.07
2024-04-14T14:18:07.123Z,30.05
2024-04-14T14:20:36.238Z,30.17
2024-04-14T14:23:06.131Z,30.47
2024-04-14T14:25:32.796Z,30.02
2024-04-14T14:27:59.854Z,30.36
2024-04-14T14:30:26.552Z,29.82
2024-04-14T14:32:54.415Z,30.09
2024-04-14T14:35:22.394Z,29.55
2024-04-14T14:37:49.246Z,28.89
2024-04-14T14:40:16.242Z,28.98
2024-04-14T14:42:45.997Z,29.08
2024-04-14T14:45:13.765Z,29.22
2024-04-14T14:47:41.421Z,29.40
2024-04-14T14:50:08.194Z,29.19
2024-04-14T14:52:35.081Z,29.50
2024-04-14T14:55:03.280Z,28.80
2024-04-14T14:57:30.130Z,29.42
2024-04-14T14:59:59.118Z,28.87
2024-04-14T15:02:27.128Z,28.60
2024-04-14T15:04:54.425Z,29.09
2024-04-14T15:07:21.239Z,28.48
2024-04-14T15:09:49.318Z,28.91
2024-04-14T15:15:01.683Z,29.04
2024-04-14T15:23:51.800Z,28.64
2024-04-14T15:26:18.466Z,28.57
2024-04-14T15:28:46.120Z,28.68
2024-04-14T15:31:23.992Z,28.61
2024-04-14T15:33:50.691Z,28.95
2024-04-14T15:36:19.662Z,29.28
2024-04-14T15:38:46.322Z,29.48
2024-04-14T15:41:13.126Z,29.21
2024-04-14T15:43:39.747Z,29.79
2024-04-14T15:46:06.814Z,29.33
2024-04-14T15:48:33.458Z,29.47
2024-04-14T15:51:13.548Z,29.57
2024-04-14T15:53:46.292Z,29.94
2024-04-14T15:56:13.296Z,29.65
2024-04-14T15:58:41.004Z,29.55
2024-04-14T16:01:07.743Z,29.36
2024-04-14T16:03:34.507Z,29.55
2024-04-14T16:06:01.497Z,29.55
2024-04-14T16:08:28.225Z,29.53
2024-04-14T16:10:54.878Z,28.91
2024-04-14T16:13:21.610Z,28.97
2024-04-14T16:15:48.410Z,29.28
2024-04-14T16:18:18.753Z,28.65
2024-04-14T16:20:45.874Z,28.85
2024-04-14T16:23:12.595Z,29.47
2024-04-14T16:25:39.283Z,29.42
2024-04-14T16:28:06.335Z,29.62
2024-04-14T16:30:33.339Z,29.53
2024-04-14T16:33:00.888Z,30.31
2024-04-14T16:35:27.595Z,30.12
2024-04-14T16:37:54.230Z,29.68
2024-04-14T16:40:20.863Z,30.61
2024-04-14T16:42:50.049Z,30.55
2024-04-14T16:45:16.720Z,30.63
2024-04-14T16:47:43.713Z,30.47
2024-04-14T16:50:10.574Z,30.38
2024-04-14T16:52:37.444Z,30.29
2024-04-14T16:55:04.583Z,30.38
2024-04-14T16:57:34.352Z,30.29
2024-04-14T17:00:00.987Z,30.30
2024-04-14T17:02:27.639Z,30.41
2024-04-14T17:04:54.266Z,30.34
2024-04-14T17:07:21.012Z,30.47
2024-04-14T17:09:47.657Z,30.69
2024-04-14T17:12:15.235Z,30.48
2024-04-14T17:14:44.606Z,31.00
2024-04-14T17:17:12.968Z,30.89
2024-04-14T17:19:39.632Z,30.88
2024-04-14T17:22:06.400Z,29.99
2024-04-14T17:24:33.073Z,30.35
2024-04-14T17:26:59.678Z,30.01
2024-04-14T17:29:26.292Z,31.05
2024-04-14T17:31:52.927Z,31.10
2024-04-14T17:34:19.623Z,31.12
2024-04-14T17:36:46.319Z,31.09
2024-04-14T17:39:13.030Z,30.92
2024-04-14T17:41:39.670Z,31.62
2024-04-14T17:44:06.402Z,32.02
2024-04-14T17:46:33.035Z,31.62
2024-04-14T17:48:59.685Z,32.12
2024-04-14T17:51:26.395Z,31.82
2024-04-14T17:53:53.312Z,31.61
2024-04-14T17:56:27.401Z,31.37
2024-04-14T17:58:54.305Z,31.64
2024-04-14T18:01:22.021Z,31.59
2024-04-14T18:03:48.794Z,30.69
2024-04-14T18:06:15.456Z,30.59
2024-04-14T18:08:42.098Z,31.44
2024-04-14T18:11:08.736Z,30.70
2024-04-14T18:13:35.398Z,31.14
2024-04-14T18:16:02.039Z,30.33
2024-04-14T18:18:28.732Z,30.27
2024-04-14T18:20:56.383Z,30.20
2024-04-14T18:23:23.012Z,30.34
2024-04-14T18:25:50.710Z,30.12
2024-04-14T18:28:17.378Z,30.16
2024-04-14T18:30:44.069Z,30.44
2024-04-14T18:33:10.779Z,30.37
2024-04-14T18:35:39.723Z,30.64
2024-04-14T18:38:10.881Z,31.16
2024-04-14T18:40:37.557Z,30.77
2024-04-14T18:43:04.252Z,31.33
2024-04-14T18:45:31.888Z,30.45
2024-04-14T18:47:58.659Z,31.34
2024-04-14T18:50:25.395Z,31.21
2024-04-14T18:52:52.639Z,31.11
2024-04-14T18:55:19.315Z,33.11
2024-04-14T18:57:48.432Z,32.06
2024-04-14T19:00:16.400Z,32.77
2024-04-14T19:02:42.992Z,33.14
2024-04-14T19:05:09.657Z,34.38
2024-04-14T19:07:36.335Z,32.96
2024-04-14T19:10:02.968Z,34.25
2024-04-14T19:12:29.649Z,33.92
2024-04-14T19:14:56.251Z,34.34
2024-04-14T19:17:22.906Z,34.13
2024-04-14T19:19:49.531Z,33.99
2024-04-14T19:22:16.339Z,34.19
2024-04-14T19:24:42.961Z,34.35
2024-04-14T19:27:09.596Z,34.42
2024-04-14T19:29:45.461Z,34.68
2024-04-14T19:32:12.238Z,34.48
2024-04-14T19:34:38.885Z,33.38
2024-04-14T19:37:05.490Z,34.37
2024-04-14T19:55:56.087Z,34.93
2024-04-14T19:58:22.782Z,35.11
2024-04-14T20:00:49.947Z,35.04
2024-04-14T20:03:17.049Z,34.71
2024-04-14T20:05:43.858Z,35.03
2024-04-14T20:08:11.105Z,35.16
2024-04-14T20:10:38.035Z,37.08
2024-04-14T20:13:07.051Z,36.61
2024-04-14T20:15:34.470Z,36.60
2024-04-14T20:18:01.351Z,36.17
2024-04-14T20:20:28.455Z,35.75
2024-04-14T20:23:02.808Z,35.33
2024-04-14T20:25:29.660Z,36.49
2024-04-14T20:27:56.348Z,36.55
2024-04-14T20:30:22.988Z,36.02
2024-04-14T20:32:49.773Z,36.90
2024-04-14T20:35:16.439Z,37.65
2024-04-14T20:37:43.235Z,36.95
2024-04-14T20:40:10.052Z,37.37
2024-04-14T20:42:36.817Z,37.00
2024-04-14T20:45:03.499Z,36.49
2024-04-14T20:47:30.287Z,36.60
2024-04-14T20:49:56.979Z,37.19
2024-04-14T20:52:25.160Z,36.88
2024-04-14T20:54:51.896Z,36.57
2024-04-14T20:57:18.904Z,36.91
2024-04-14T20:59:45.804Z,36.29
2024-04-14T21:02:24.854Z,36.48
2024-04-14T21:05:10.494Z,36.04
2024-04-14T21:07:38.083Z,36.67
2024-04-14T21:10:04.866Z,36.43
2024-04-14T21:12:31.963Z,36.06
2024-04-14T21:14:59.462Z,36.14
2024-04-14T21:17:28.603Z,36.60
2024-04-14T21:19:55.690Z,36.40
2024-04-14T21:22:22.707Z,36.30
2024-04-14T21:24:49.454Z,36.00
2024-04-14T21:27:16.107Z,36.42
2024-04-14T21:29:43.094Z,35.96
2024-04-14T21:32:09.731Z,35.77
2024-04-14T21:34:36.627Z,36.23
2024-04-14T21:37:03.405Z,36.80
2024-04-14T21:39:30.091Z,38.35
2024-04-14T21:41:59.215Z,38.05
2024-04-14T21:44:26.207Z,39.00
2024-04-14T21:46:53.145Z,38.98
2024-04-14T21:49:20.950Z,38.67
2024-04-14T21:51:47.837Z,40.10
2024-04-14T21:54:14.486Z,40.16
2024-04-14T21:56:41.154Z,39.72
2024-04-14T21:59:07.952Z,39.23
2024-04-14T22:01:43.956Z,39.03
2024-04-14T22:04:16.447Z,38.99
2024-04-14T22:06:48.448Z,38.26
2024-04-14T22:09:15.245Z,38.36
2024-04-14T22:11:42.046Z,38.53
2024-04-14T22:14:08.795Z,39.96
2024-04-14T22:16:35.548Z,40.52
2024-04-14T22:19:02.248Z,39.92
2024-04-14T22:21:32.198Z,40.65
2024-04-14T22:24:01.712Z,41.53
2024-04-14T22:26:28.414Z,41.24
2024-04-14T22:28:55.371Z,40.00
2024-04-14T22:31:22.048Z,40.38
2024-04-14T22:33:48.976Z,40.41
2024-04-14T22:36:17.931Z,40.57
2024-04-14T22:39:04.913Z,39.69
2024-04-14T22:41:31.512Z,39.13
2024-04-14T22:43:58.398Z,39.22
2024-04-14T22:46:25.062Z,39.96
2024-04-14T22:48:52.061Z,41.17
2024-04-14T22:51:18.691Z,42.04
2024-04-14T22:53:45.723Z,43.68
2024-04-14T22:56:12.345Z,43.03
2024-04-14T22:58:40.452Z,42.76
2024-04-14T23:01:07.283Z,41.46
2024-04-14T23:03:34.350Z,40.66
2024-04-14T23:06:01.640Z,41.12
2024-04-14T23:08:28.312Z,40.73
2024-04-14T23:10:56.030Z,42.04
2024-04-14T23:13:23.913Z,41.13
2024-04-14T23:15:50.752Z,40.46
2024-04-14T23:18:18.216Z,42.29
2024-04-14T23:20:44.908Z,45.20
2024-04-14T23:23:12.239Z,44.63
2024-04-14T23:25:46.126Z,42.95
2024-04-14T23:28:12.924Z,42.13
2024-04-14T23:30:39.800Z,42.29
2024-04-14T23:33:07.320Z,42.20
2024-04-14T23:35:34.455Z,42.71
2024-04-14T23:38:01.485Z,43.03
2024-04-14T23:40:28.205Z,44.24
2024-04-14T23:42:54.898Z,43.22
2024-04-14T23:45:21.590Z,44.96
2024-04-14T23:47:48.640Z,47.85
2024-04-14T23:50:15.574Z,47.35
2024-04-14T23:52:42.265Z,46.95
2024-04-14T23:55:09.441Z,45.95
2024-04-14T23:57:36.235Z,46.51
